createdAt,value
2023-01-26T00:32:59.973Z,2.59
2023-01-26T00:36:37.748Z,2.15
2023-01-26T00:40:41.309Z,2.05
2023-01-26T00:44:32.461Z,1.88
2023-01-26T00:48:26.464Z,1.53
2023-01-26T00:52:42.228Z,1.33
2023-01-26T00:56:38.563Z,1.20
2023-01-26T01:00:31.101Z,1.09
2023-01-26T01:04:30.986Z,1.04
2023-01-26T01:08:12.615Z,1.05
2023-01-26T01:11:57.239Z,1.14
2023-01-26T01:15:59.757Z,1.18
2023-01-26T01:20:03.396Z,1.21
2023-01-26T01:24:10.786Z,1.27
2023-01-26T01:28:00.712Z,1.28
2023-01-26T01:32:07.252Z,1.32
2023-01-26T01:36:04.201Z,1.27
2023-01-26T01:40:01.108Z,1.24
2023-01-26T01:43:55.797Z,1.18
2023-01-26T01:47:59.699Z,1.17
2023-01-26T01:51:48.828Z,1.18
2023-01-26T01:55:55.314Z,1.19
2023-01-26T01:59:59.205Z,1.16
2023-01-26T02:03:55.237Z,1.13
2023-01-26T02:07:44.294Z,1.08
2023-01-26T02:11:57.293Z,1.19
2023-01-26T02:16:00.908Z,1.19
2023-01-26T02:20:06.200Z,1.19
2023-01-26T02:24:15.624Z,1.18
2023-01-26T02:27:55.422Z,1.15
2023-01-26T02:31:48.681Z,1.17
2023-01-26T02:35:44.407Z,1.08
2023-01-26T02:39:53.305Z,1.02
2023-01-26T02:43:39.644Z,1.05
2023-01-26T02:47:43.817Z,1.05
2023-01-26T02:51:47.428Z,1.00
2023-01-26T02:55:42.845Z,1.00
2023-01-26T02:59:25.000Z,0.98
2023-01-26T03:03:19.205Z,0.93
2023-01-26T03:07:21.498Z,0.94
2023-01-26T03:11:09.204Z,0.94
2023-01-26T03:15:11.135Z,0.94
2023-01-26T03:19:09.538Z,0.97
2023-01-26T03:23:11.226Z,0.99
2023-01-26T03:27:14.451Z,0.98
2023-01-26T03:31:10.122Z,0.97
2023-01-26T03:35:39.145Z,0.96
2023-01-26T03:39:27.820Z,0.88
2023-01-26T03:48:25.544Z,0.89
2023-01-26T03:52:28.385Z,0.93
2023-01-26T03:56:39.722Z,0.92
2023-01-26T04:00:43.321Z,0.85
2023-01-26T04:04:48.101Z,0.86
2023-01-26T04:08:54.235Z,0.89
2023-01-26T04:12:50.529Z,0.88
2023-01-26T04:17:02.257Z,0.83
2023-01-26T04:21:04.581Z,0.73
2023-01-26T04:25:06.909Z,0.78
2023-01-26T04:29:10.529Z,0.81
2023-01-26T04:33:07.490Z,0.81
2023-01-26T04:37:22.943Z,0.82
2023-01-26T04:41:09.155Z,0.72
2023-01-26T04:45:04.825Z,0.68
2023-01-26T04:48:50.054Z,0.73
2023-01-26T04:52:37.580Z,0.78
2023-01-26T04:56:26.763Z,0.76
2023-01-26T05:00:30.773Z,0.83
2023-01-26T05:04:34.764Z,0.79
2023-01-26T05:08:22.486Z,0.74
2023-01-26T05:12:26.210Z,0.70
2023-01-26T05:16:18.479Z,0.73
2023-01-26T05:20:04.994Z,0.71
2023-01-26T05:24:08.793Z,0.70
2023-01-26T05:28:01.917Z,0.67
2023-01-26T05:31:57.235Z,0.65
2023-01-26T05:36:00.877Z,0.68
2023-01-26T05:40:06.699Z,0.71
2023-01-26T05:43:51.895Z,0.72
2023-01-26T05:47:42.023Z,0.69
2023-01-26T05:51:45.697Z,0.70
2023-01-26T05:55:28.701Z,0.68
2023-01-26T05:59:32.316Z,0.72
2023-01-26T06:03:21.467Z,0.75
2023-01-26T06:07:16.215Z,0.86
2023-01-26T06:11:12.534Z,0.92
2023-01-26T06:14:47.223Z,0.97
2023-01-26T06:18:52.302Z,1.07
2023-01-26T06:22:55.865Z,1.16
2023-01-26T06:27:08.653Z,1.12
2023-01-26T06:31:12.608Z,1.08
2023-01-26T06:35:08.823Z,1.12
2023-01-26T06:44:17.457Z,1.29
2023-01-26T06:48:20.941Z,1.09
2023-01-26T06:52:27.668Z,0.96
2023-01-26T06:56:36.943Z,0.91
2023-01-26T07:00:32.895Z,0.82
2023-01-26T07:04:36.869Z,0.72
2023-01-26T07:08:37.608Z,0.70
2023-01-26T07:12:19.205Z,0.64
2023-01-26T07:15:57.674Z,0.65
2023-01-26T07:19:54.280Z,0.67
2023-01-26T07:23:56.789Z,0.74
2023-01-26T07:27:58.938Z,0.82
2023-01-26T07:32:01.958Z,0.89
2023-01-26T07:36:07.194Z,0.89
2023-01-26T07:40:03.873Z,0.90
2023-01-26T07:44:01.933Z,0.89
2023-01-26T07:47:52.091Z,0.85
2023-01-26T07:51:55.799Z,0.85
2023-01-26T07:55:44.163Z,0.87
2023-01-26T07:59:43.492Z,0.84
2023-01-26T08:03:43.993Z,0.82
2023-01-26T08:07:47.731Z,0.77
2023-01-26T08:11:46.839Z,0.76
2023-01-26T08:15:36.509Z,0.76
2023-01-26T08:19:44.371Z,0.81
2023-01-26T08:23:48.066Z,0.79
2023-01-26T08:27:48.883Z,0.78
2023-01-26T08:31:33.684Z,0.77
2023-01-26T08:35:21.223Z,0.80
2023-01-26T08:39:42.487Z,0.92
2023-01-26T08:43:46.139Z,0.94
2023-01-26T08:47:40.577Z,0.89
2023-01-26T08:51:06.974Z,0.82
2023-01-26T08:55:00.843Z,0.75
2023-01-26T08:58:29.028Z,0.79
2023-01-26T09:02:25.560Z,0.86
2023-01-26T09:06:19.095Z,0.87
2023-01-26T09:10:22.782Z,0.81
2023-01-26T09:14:17.460Z,0.80
2023-01-26T09:18:19.766Z,0.90
2023-01-26T09:22:23.480Z,0.95
2023-01-26T09:26:23.125Z,0.99
2023-01-26T09:30:06.733Z,0.99
2023-01-26T09:34:09.037Z,1.03
2023-01-26T09:37:43.658Z,1.06
2023-01-26T09:41:38.200Z,1.08
2023-01-26T09:45:33.338Z,1.09
2023-01-26T09:49:18.609Z,1.06
2023-01-26T09:53:31.355Z,0.97
2023-01-26T09:57:38.722Z,0.97
2023-01-26T10:01:48.044Z,0.99
2023-01-26T10:05:46.547Z,1.09
2023-01-26T10:09:16.080Z,1.20
2023-01-26T10:13:25.908Z,1.21
2023-01-26T10:17:18.287Z,1.12
2023-01-26T10:21:22.182Z,1.10
2023-01-26T10:25:25.744Z,1.03
2023-01-26T10:28:52.282Z,1.00
2023-01-26T10:32:30.998Z,1.05
2023-01-26T10:36:15.059Z,1.07
2023-01-26T10:40:19.177Z,1.09
2023-01-26T10:44:15.758Z,1.17
2023-01-26T10:48:25.973Z,1.23
2023-01-26T10:52:31.385Z,1.25
2023-01-26T10:55:59.755Z,1.23
2023-01-26T10:59:55.395Z,1.23
2023-01-26T11:04:14.520Z,1.19
2023-01-26T11:08:08.168Z,1.16
2023-01-26T11:12:04.774Z,1.17
2023-01-26T11:16:08.708Z,1.19
2023-01-26T11:20:23.536Z,1.19
2023-01-26T11:24:33.666Z,1.15
2023-01-26T11:28:53.259Z,1.14
2023-01-26T11:32:56.885Z,1.03
2023-01-26T11:37:06.429Z,0.99
2023-01-26T11:41:08.723Z,0.99
2023-01-26T11:45:18.560Z,1.02
2023-01-26T11:49:36.974Z,0.95
2023-01-26T11:57:58.754Z,0.97
2023-01-26T12:01:59.213Z,0.99
2023-01-26T12:06:11.869Z,1.02
2023-01-26T12:10:15.716Z,1.00
2023-01-26T12:14:27.985Z,0.97
2023-01-26T12:19:01.818Z,1.11
2023-01-26T12:23:20.484Z,1.16
2023-01-26T12:27:17.751Z,1.10
2023-01-26T12:31:34.053Z,1.03
2023-01-26T12:35:33.260Z,1.03
2023-01-26T12:39:30.550Z,1.05
2023-01-26T12:43:49.271Z,1.09
2023-01-26T12:48:06.168Z,1.09
2023-01-26T12:52:12.624Z,1.04
2023-01-26T12:56:10.708Z,1.05
2023-01-26T13:00:12.024Z,1.01
2023-01-26T13:04:01.773Z,0.95
2023-01-26T13:08:11.616Z,0.95
2023-01-26T13:12:20.976Z,0.99
2023-01-26T13:15:47.932Z,0.88
2023-01-26T13:19:43.130Z,0.91
2023-01-26T13:23:48.207Z,0.90
2023-01-26T13:27:40.390Z,0.83
2023-01-26T13:31:56.345Z,0.76
2023-01-26T13:36:03.054Z,0.72
2023-01-26T13:40:09.829Z,0.74
2023-01-26T13:44:16.836Z,0.75
2023-01-26T13:48:13.209Z,0.73
2023-01-26T13:52:17.019Z,0.77
2023-01-26T13:56:21.537Z,0.72
2023-01-26T14:00:13.979Z,0.75
2023-01-26T14:09:01.637Z,0.84
2023-01-26T14:13:04.170Z,0.88
2023-01-26T14:17:13.844Z,0.82
2023-01-26T14:21:11.624Z,0.81
2023-01-26T14:25:08.812Z,0.81
2023-01-26T14:29:11.350Z,0.87
2023-01-26T14:33:18.026Z,0.86
2023-01-26T14:37:07.024Z,0.82
2023-01-26T14:41:09.665Z,0.73
2023-01-26T14:44:44.659Z,0.65
2023-01-26T14:49:00.990Z,0.63
2023-01-26T14:53:20.411Z,0.58
2023-01-26T15:01:39.815Z,0.46
2023-01-26T15:05:46.467Z,0.47
2023-01-26T15:10:09.095Z,0.51
2023-01-26T15:14:15.823Z,0.63
2023-01-26T15:18:23.602Z,0.61
2023-01-26T15:22:30.251Z,0.58
2023-01-26T15:26:36.269Z,0.56
2023-01-26T15:30:40.065Z,0.60
2023-01-26T15:34:46.960Z,0.61
2023-01-26T15:38:46.062Z,0.63
2023-01-26T15:43:13.294Z,0.61
2023-01-26T15:47:13.423Z,0.55
2023-01-26T15:51:17.201Z,0.56
2023-01-26T15:55:06.461Z,0.53
2023-01-26T15:59:06.360Z,0.53
2023-01-26T16:03:01.287Z,0.54
2023-01-26T16:06:35.777Z,0.57
2023-01-26T16:10:39.428Z,0.62
2023-01-26T16:14:56.078Z,0.66
2023-01-26T16:19:00.215Z,0.73
2023-01-26T16:23:03.817Z,0.69
2023-01-26T16:26:47.776Z,0.68
2023-01-26T16:30:39.687Z,0.67
2023-01-26T16:34:36.574Z,0.67
2023-01-26T16:38:32.942Z,0.64
2023-01-26T16:42:16.682Z,0.63
2023-01-26T16:46:20.452Z,0.65
2023-01-26T16:50:26.197Z,0.57
2023-01-26T16:54:15.190Z,0.44
2023-01-26T16:58:05.553Z,0.49
2023-01-26T17:02:12.528Z,0.48
2023-01-26T17:06:16.352Z,0.47
2023-01-26T17:10:20.420Z,0.46
2023-01-26T17:14:24.585Z,0.53
2023-01-26T17:18:31.365Z,0.57
2023-01-26T17:22:20.431Z,0.60
2023-01-26T17:26:24.642Z,0.70
2023-01-26T17:30:13.900Z,0.81
2023-01-26T17:34:03.594Z,0.88
2023-01-26T17:37:40.324Z,0.86
2023-01-26T17:41:27.584Z,0.80
2023-01-26T17:45:16.219Z,0.79
2023-01-26T17:49:12.539Z,0.79
2023-01-26T17:53:08.880Z,0.76
2023-01-26T17:57:12.865Z,0.71
2023-01-26T18:01:00.515Z,0.69
2023-01-26T18:04:46.711Z,0.71
2023-01-26T18:08:36.978Z,0.69
2023-01-26T18:12:39.258Z,0.74
2023-01-26T18:16:36.854Z,0.72
2023-01-26T18:20:40.548Z,0.77
2023-01-26T18:24:56.082Z,0.77
2023-01-26T18:29:01.075Z,0.78
2023-01-26T18:32:52.136Z,0.78
2023-01-26T18:36:48.399Z,0.72
2023-01-26T18:40:56.228Z,0.66
2023-01-26T18:44:30.453Z,0.72
2023-01-26T18:48:40.160Z,0.75
2023-01-26T18:52:31.010Z,0.77
2023-01-26T18:56:28.238Z,0.78
2023-01-26T19:58:58.075Z,0.44
2023-01-26T20:02:37.557Z,0.36
2023-01-26T20:06:39.715Z,0.32
2023-01-26T20:15:28.319Z,0.41
2023-01-26T20:19:30.759Z,0.39
2023-01-26T20:24:06.426Z,0.44
2023-01-26T20:28:10.854Z,0.50
2023-01-26T20:32:07.008Z,0.59
2023-01-26T20:36:03.384Z,0.62
2023-01-26T20:40:07.791Z,0.60
2023-01-26T20:44:02.876Z,0.56
2023-01-26T20:47:58.102Z,0.54
2023-01-26T20:52:02.533Z,0.57
2023-01-26T20:56:06.195Z,0.52
2023-01-26T20:59:55.533Z,0.50
2023-01-26T21:03:52.196Z,0.49
2023-01-26T21:07:46.150Z,0.52
2023-01-26T21:11:51.046Z,0.54
2023-01-26T21:15:38.798Z,0.59
2023-01-26T21:19:18.225Z,0.67
2023-01-26T21:23:21.899Z,0.73
2023-01-26T21:27:18.265Z,0.72
2023-01-26T21:31:20.661Z,0.68
2023-01-26T21:35:04.702Z,0.57
2023-01-26T21:38:54.325Z,0.54
2023-01-26T21:43:00.028Z,0.50
2023-01-26T21:47:06.796Z,0.52
2023-01-26T21:51:17.601Z,0.53
2023-01-26T21:55:13.249Z,0.46
2023-01-26T21:59:08.037Z,0.40
2023-01-26T22:03:19.337Z,0.41
2023-01-26T22:07:22.901Z,0.38
2023-01-26T22:11:23.400Z,0.31
2023-01-26T22:15:27.493Z,0.30
2023-01-26T22:19:23.729Z,0.34
2023-01-26T22:23:12.849Z,0.36
2023-01-26T22:27:09.385Z,0.34
2023-01-26T22:30:57.848Z,0.35
2023-01-26T22:34:51.930Z,0.38
2023-01-26T22:38:48.432Z,0.38
2023-01-26T22:42:52.120Z,0.35
2023-01-26T22:46:48.932Z,0.35
2023-01-26T22:50:52.575Z,0.40
2023-01-26T22:54:57.086Z,0.39
2023-01-26T22:59:00.945Z,0.34
2023-01-26T23:03:05.029Z,0.40
2023-01-26T23:07:08.694Z,0.43
2023-01-26T23:11:18.348Z,0.45
2023-01-26T23:15:35.173Z,0.42
2023-01-26T23:19:39.046Z,0.36
2023-01-26T23:23:27.790Z,0.29
2023-01-26T23:31:57.740Z,0.18
2023-01-26T23:35:52.849Z,0.16
2023-01-26T23:39:48.706Z,0.16
2023-01-26T23:43:52.380Z,0.22
2023-01-26T23:47:55.432Z,0.23
2023-01-26T23:51:59.141Z,0.17
2023-01-26T23:56:03.002Z,0.15
